createdAt,value
2024-04-24T00:02:08.735Z,10.33
2024-04-24T00:05:01.437Z,9.87
2024-04-24T00:07:51.842Z,9.90
2024-04-24T00:10:42.074Z,9.80
2024-04-24T00:13:34.995Z,9.97
2024-04-24T00:16:24.959Z,9.60
2024-04-24T00:19:15.099Z,9.90
2024-04-24T00:22:05.424Z,9.97
2024-04-24T00:24:55.654Z,10.37
2024-04-24T00:27:45.724Z,10.17
2024-04-24T00:30:38.389Z,10.20
2024-04-24T00:33:28.355Z,9.97
2024-04-24T00:36:18.461Z,10.10
2024-04-24T00:39:08.327Z,10.20
2024-04-24T00:41:58.584Z,10.50
2024-04-24T00:44:48.515Z,10.20
2024-04-24T00:47:42.865Z,10.10
2024-04-24T00:50:33.740Z,10.03
2024-04-24T00:53:23.967Z,10.40
2024-04-24T00:56:14.155Z,11.10
2024-04-24T00:59:04.935Z,10.43
2024-04-24T01:01:55.074Z,10.60
2024-04-24T01:04:47.958Z,10.97
2024-04-24T01:07:38.975Z,10.50
2024-04-24T01:10:29.186Z,10.90
2024-04-24T01:13:18.977Z,10.87
2024-04-24T01:16:17.425Z,10.30
2024-04-24T01:19:21.241Z,10.40
2024-04-24T01:22:42.323Z,10.47
2024-04-24T01:25:38.125Z,10.40
2024-04-24T01:28:30.791Z,10.63
2024-04-24T01:31:20.792Z,10.70
2024-04-24T01:34:10.857Z,10.20
2024-04-24T01:37:01.244Z,10.50
2024-04-24T01:39:51.100Z,10.70
2024-04-24T01:42:41.137Z,10.43
2024-04-24T01:45:33.851Z,10.90
2024-04-24T01:48:23.894Z,10.90
2024-04-24T01:51:14.148Z,10.03
2024-04-24T01:54:04.293Z,10.53
2024-04-24T01:56:54.494Z,10.90
2024-04-24T01:59:44.788Z,10.83
2024-04-24T02:02:37.683Z,10.83
2024-04-24T02:05:27.777Z,11.00
2024-04-24T02:08:18.079Z,11.03
2024-04-24T02:11:08.536Z,11.07
2024-04-24T02:13:58.752Z,10.70
2024-04-24T02:16:48.663Z,10.50
2024-04-24T02:19:42.527Z,10.70
2024-04-24T02:22:35.164Z,10.50
2024-04-24T02:25:39.122Z,10.70
2024-04-24T02:28:29.485Z,10.37
2024-04-24T02:31:19.522Z,10.17
2024-04-24T02:34:09.659Z,10.10
2024-04-24T02:37:02.485Z,10.10
2024-04-24T02:39:52.645Z,10.50
2024-04-24T02:42:42.727Z,10.17
2024-04-24T02:45:33.099Z,9.90
2024-04-24T02:48:23.405Z,10.50
2024-04-24T02:51:13.175Z,10.30
2024-04-24T02:54:05.946Z,10.77
2024-04-24T02:56:53.672Z,10.90
2024-04-24T02:59:44.704Z,10.53
2024-04-24T03:02:34.847Z,10.50
2024-04-24T03:05:24.963Z,10.10
2024-04-24T03:08:15.189Z,10.53
2024-04-24T03:11:08.801Z,10.70
2024-04-24T03:13:58.952Z,10.40
2024-04-24T03:16:49.235Z,10.30
2024-04-24T03:19:41.557Z,10.30
2024-04-24T03:22:34.039Z,9.80
2024-04-24T03:25:24.047Z,10.20
2024-04-24T03:28:17.006Z,10.23
2024-04-24T03:31:07.659Z,10.40
2024-04-24T03:33:57.467Z,10.53
2024-04-24T03:36:47.837Z,10.20
2024-04-24T03:39:37.632Z,10.10
2024-04-24T03:42:27.858Z,10.00
2024-04-24T03:45:20.820Z,10.47
2024-04-24T03:48:11.537Z,10.00
2024-04-24T03:51:01.725Z,10.43
2024-04-24T03:53:51.688Z,11.00
2024-04-24T03:56:42.277Z,10.40
2024-04-24T03:59:33.039Z,10.13
2024-04-24T04:02:26.391Z,10.67
2024-04-24T04:05:16.934Z,10.17
2024-04-24T04:08:07.253Z,10.63
2024-04-24T04:10:59.974Z,10.20
2024-04-24T04:13:50.047Z,10.63
2024-04-24T04:16:40.293Z,10.90
2024-04-24T04:19:33.133Z,10.80
2024-04-24T04:22:23.317Z,11.30
2024-04-24T04:25:13.238Z,11.13
2024-04-24T04:28:03.421Z,11.10
2024-04-24T04:30:54.089Z,10.30
2024-04-24T04:33:46.992Z,10.90
2024-04-24T04:36:39.743Z,10.83
2024-04-24T04:39:29.873Z,10.80
2024-04-24T04:42:20.110Z,10.60
2024-04-24T04:45:11.764Z,11.00
2024-04-24T04:48:01.898Z,11.03
2024-04-24T04:50:51.819Z,10.50
2024-04-24T04:53:44.877Z,10.97
2024-04-24T04:56:35.136Z,10.80
2024-04-24T04:59:25.351Z,11.20
2024-04-24T05:02:15.709Z,11.73
2024-04-24T05:05:05.929Z,10.87
2024-04-24T05:07:55.663Z,11.70
2024-04-24T05:10:48.276Z,11.00
2024-04-24T05:13:38.601Z,11.00
2024-04-24T05:16:28.622Z,10.80
2024-04-24T05:19:18.893Z,10.90
2024-04-24T05:22:10.486Z,10.60
2024-04-24T05:25:00.422Z,11.33
2024-04-24T05:28:09.416Z,11.57
2024-04-24T05:30:59.490Z,11.40
2024-04-24T05:33:49.874Z,10.60
2024-04-24T05:36:40.177Z,10.93
2024-04-24T05:39:30.424Z,10.93
2024-04-24T05:42:20.928Z,10.70
2024-04-24T05:45:13.490Z,10.40
2024-04-24T05:48:03.999Z,10.60
2024-04-24T05:50:54.090Z,10.63
2024-04-24T05:53:44.294Z,10.97
2024-04-24T05:56:34.535Z,10.52
2024-04-24T05:59:24.988Z,11.10
2024-04-24T06:02:17.536Z,11.10
2024-04-24T06:05:08.537Z,11.00
2024-04-24T06:07:59.949Z,11.10
2024-04-24T06:10:50.030Z,10.67
2024-04-24T06:13:40.121Z,11.17
2024-04-24T06:16:30.284Z,11.30
2024-04-24T06:19:23.288Z,10.80
2024-04-24T06:22:13.223Z,11.00
2024-04-24T06:25:03.540Z,11.00
2024-04-24T06:27:53.346Z,10.40
2024-04-24T06:30:46.342Z,10.90
2024-04-24T06:33:37.078Z,10.40
2024-04-24T06:36:29.862Z,11.10
2024-04-24T06:39:20.017Z,11.13
2024-04-24T06:42:13.390Z,11.20
2024-04-24T06:45:03.141Z,10.80
2024-04-24T06:48:06.069Z,10.30
2024-04-24T06:50:55.801Z,10.33
2024-04-24T06:53:48.487Z,10.90
2024-04-24T06:56:40.575Z,10.30
2024-04-24T06:59:31.200Z,10.43
2024-04-24T07:02:22.028Z,10.20
2024-04-24T07:05:12.458Z,10.43
2024-04-24T07:08:04.111Z,10.37
2024-04-24T07:10:58.097Z,10.33
2024-04-24T07:13:48.628Z,10.60
2024-04-24T07:16:41.409Z,10.20
2024-04-24T07:19:31.503Z,10.73
2024-04-24T07:22:21.945Z,10.03
2024-04-24T07:25:12.020Z,10.93
2024-04-24T07:28:04.792Z,10.80
2024-04-24T07:30:57.440Z,10.77
2024-04-24T07:33:47.335Z,10.27
2024-04-24T07:36:37.481Z,10.37
2024-04-24T07:39:27.689Z,10.40
2024-04-24T07:42:18.026Z,10.33
2024-04-24T07:45:11.569Z,10.10
2024-04-24T07:48:01.499Z,9.80
2024-04-24T07:50:51.599Z,9.80
2024-04-24T07:53:41.756Z,10.37
2024-04-24T07:56:31.946Z,10.30
2024-04-24T07:59:21.811Z,10.10
2024-04-24T08:02:14.593Z,9.87
2024-04-24T08:05:04.406Z,9.77
2024-04-24T08:07:54.348Z,10.10
2024-04-24T08:10:44.727Z,10.10
2024-04-24T08:13:34.425Z,9.90
2024-04-24T08:16:24.700Z,10.07
2024-04-24T08:19:17.776Z,10.23
2024-04-24T08:22:07.901Z,10.00
2024-04-24T08:24:58.062Z,10.30
2024-04-24T08:27:47.812Z,10.30
2024-04-24T08:30:37.756Z,10.17
2024-04-24T08:33:28.153Z,10.27
2024-04-24T08:36:20.645Z,10.30
2024-04-24T08:39:12.422Z,10.30
2024-04-24T08:42:03.075Z,11.77
2024-04-24T08:44:54.227Z,13.80
2024-04-24T08:47:44.231Z,11.77
2024-04-24T08:50:35.119Z,11.30
2024-04-24T08:53:33.297Z,11.27
2024-04-24T08:56:28.080Z,10.47
2024-04-24T08:59:24.648Z,10.43
2024-04-24T09:02:15.835Z,10.10
2024-04-24T09:05:07.744Z,10.77
2024-04-24T09:07:59.122Z,10.37
2024-04-24T09:10:53.589Z,10.20
2024-04-24T09:13:44.450Z,10.07
2024-04-24T09:16:38.972Z,10.23
2024-04-24T09:19:29.247Z,10.33
2024-04-24T09:22:23.063Z,10.53
2024-04-24T09:25:13.196Z,10.97
2024-04-24T09:28:05.960Z,11.87
2024-04-24T09:30:58.504Z,11.10
2024-04-24T09:33:48.668Z,11.77
2024-04-24T09:36:39.183Z,11.60
2024-04-24T09:39:31.944Z,11.13
2024-04-24T09:42:22.348Z,11.40
2024-04-24T09:45:15.521Z,11.07
2024-04-24T09:48:07.758Z,11.87
2024-04-24T09:50:58.164Z,11.13
2024-04-24T09:53:48.371Z,11.40
2024-04-24T09:56:47.136Z,11.73
2024-04-24T10:03:15.408Z,10.80
2024-04-24T10:06:07.582Z,12.50
2024-04-24T10:08:58.318Z,12.60
2024-04-24T10:12:03.092Z,12.10
2024-04-24T10:15:09.272Z,11.97
2024-04-24T10:17:59.652Z,11.10
2024-04-24T10:20:56.664Z,12.03
2024-04-24T10:23:49.823Z,11.33
2024-04-24T10:26:41.315Z,11.63
2024-04-24T10:29:32.146Z,11.27
2024-04-24T10:32:25.093Z,11.63
2024-04-24T10:35:16.271Z,10.73
2024-04-24T10:38:11.589Z,11.23
2024-04-24T10:41:01.805Z,11.40
2024-04-24T10:43:53.088Z,10.83
2024-04-24T10:46:44.077Z,10.70
2024-04-24T10:49:33.748Z,11.40
2024-04-24T10:52:23.530Z,10.70
2024-04-24T10:55:20.488Z,10.80
2024-04-24T10:58:24.525Z,10.67
2024-04-24T11:01:22.104Z,10.40
2024-04-24T11:04:16.275Z,11.07
2024-04-24T11:07:08.324Z,10.27
2024-04-24T11:10:01.801Z,10.93
2024-04-24T11:12:54.567Z,10.33
2024-04-24T11:15:54.214Z,10.87
2024-04-24T11:18:48.983Z,10.43
2024-04-24T11:21:38.852Z,10.50
2024-04-24T11:24:32.606Z,10.60
2024-04-24T11:27:28.526Z,10.87
2024-04-24T11:30:23.490Z,11.00
2024-04-24T11:33:13.957Z,10.70
2024-04-24T11:36:04.602Z,11.27
2024-04-24T11:38:55.002Z,11.30
2024-04-24T11:41:45.689Z,11.80
2024-04-24T11:44:36.976Z,12.37
2024-04-24T11:47:30.006Z,12.73
2024-04-24T11:50:22.714Z,12.90
2024-04-24T11:53:13.721Z,12.60
2024-04-24T11:56:04.476Z,12.40
2024-04-24T11:58:55.132Z,12.87
2024-04-24T12:01:46.795Z,12.80
2024-04-24T12:04:48.514Z,12.10
2024-04-24T12:07:38.905Z,11.70
2024-04-24T12:10:28.905Z,12.67
2024-04-24T12:13:19.204Z,12.73
2024-04-24T12:16:09.853Z,13.17
2024-04-24T12:19:00.323Z,12.20
2024-04-24T12:21:53.276Z,12.63
2024-04-24T12:24:43.561Z,12.57
2024-04-24T12:27:33.895Z,12.60
2024-04-24T12:30:23.806Z,12.90
2024-04-24T12:33:14.121Z,13.13
2024-04-24T12:36:03.966Z,13.60
2024-04-24T12:38:56.658Z,13.43
2024-04-24T12:41:46.559Z,12.77
2024-04-24T12:44:37.047Z,13.57
2024-04-24T12:47:27.694Z,12.73
2024-04-24T12:50:19.192Z,13.03
2024-04-24T12:53:08.928Z,13.20
2024-04-24T12:56:01.510Z,13.23
2024-04-24T12:58:51.231Z,14.00
2024-04-24T13:01:41.618Z,13.40
2024-04-24T13:04:32.130Z,13.03
2024-04-24T13:07:21.991Z,12.80
2024-04-24T13:10:12.343Z,13.50
2024-04-24T13:13:04.785Z,14.53
2024-04-24T13:15:54.664Z,14.13
2024-04-24T13:18:45.172Z,13.43
2024-04-24T13:21:35.364Z,13.63
2024-04-24T13:24:25.344Z,12.87
2024-04-24T13:27:15.419Z,13.60
2024-04-24T13:30:11.195Z,13.10
2024-04-24T13:33:01.174Z,13.30
2024-04-24T13:35:52.548Z,12.73
2024-04-24T13:38:43.445Z,13.20
2024-04-24T13:41:36.525Z,13.00
2024-04-24T13:44:31.223Z,13.37
2024-04-24T13:47:23.894Z,12.40
2024-04-24T13:50:14.997Z,12.30
2024-04-24T13:53:05.177Z,12.23
2024-04-24T13:55:55.038Z,12.33
2024-04-24T13:58:45.201Z,12.40
2024-04-24T14:01:35.529Z,11.80
2024-04-24T14:04:28.514Z,12.03
2024-04-24T14:07:18.755Z,11.40
2024-04-24T14:10:09.876Z,12.03
2024-04-24T14:13:00.171Z,11.93
2024-04-24T14:15:50.068Z,11.90
2024-04-24T14:18:40.203Z,11.80
2024-04-24T14:21:33.107Z,12.03
2024-04-24T14:24:23.339Z,11.40
2024-04-24T14:27:13.302Z,11.60
2024-04-24T14:30:03.479Z,12.27
2024-04-24T14:32:53.901Z,11.53
2024-04-24T14:35:44.083Z,11.10
2024-04-24T14:38:36.697Z,10.63
2024-04-24T14:41:27.071Z,10.83
2024-04-24T14:44:17.382Z,10.17
2024-04-24T14:47:07.338Z,10.30
2024-04-24T14:49:57.430Z,10.57
2024-04-24T14:52:47.983Z,10.10
2024-04-24T14:55:42.541Z,10.57
2024-04-24T14:58:32.710Z,10.40
2024-04-24T15:01:22.729Z,10.40
2024-04-24T15:04:12.983Z,10.50
2024-04-24T15:07:12.059Z,10.00
2024-04-24T15:10:02.184Z,10.33
2024-04-24T15:12:54.791Z,10.40
2024-04-24T15:15:48.432Z,10.47
2024-04-24T15:18:38.784Z,10.10
2024-04-24T15:21:28.739Z,10.10
2024-04-24T15:24:19.090Z,9.87
2024-04-24T15:27:09.565Z,10.10
2024-04-24T15:30:02.140Z,9.83
2024-04-24T15:32:52.255Z,10.20
2024-04-24T15:35:42.233Z,10.03
2024-04-24T15:38:32.362Z,10.80
2024-04-24T15:41:22.481Z,10.17
2024-04-24T15:44:12.598Z,10.40
2024-04-24T15:47:05.593Z,10.10
2024-04-24T15:49:56.044Z,10.10
2024-04-24T15:52:46.448Z,10.17
2024-04-24T15:55:36.446Z,10.40
2024-04-24T15:58:27.369Z,11.27
2024-04-24T16:01:17.634Z,10.30
2024-04-24T16:04:10.206Z,10.27
2024-04-24T16:06:59.914Z,10.27
2024-04-24T16:09:50.264Z,10.17
2024-04-24T16:12:40.071Z,10.20
2024-04-24T16:15:30.278Z,10.70
2024-04-24T16:18:21.614Z,10.50
2024-04-24T16:21:15.402Z,9.93
2024-04-24T16:24:05.408Z,10.40
2024-04-24T16:26:55.428Z,10.10
2024-04-24T16:29:48.506Z,10.20
2024-04-24T16:32:40.007Z,10.40
2024-04-24T16:35:30.243Z,10.20
2024-04-24T16:38:22.999Z,10.10
2024-04-24T16:41:20.534Z,9.53
2024-04-24T16:44:11.470Z,9.50
2024-04-24T16:47:01.957Z,9.80
2024-04-24T16:49:52.377Z,10.10
2024-04-24T16:52:42.132Z,9.70
2024-04-24T16:55:35.239Z,9.90
2024-04-24T16:58:25.145Z,10.00
2024-04-24T17:01:16.803Z,9.90
2024-04-24T17:04:07.340Z,10.07
2024-04-24T17:06:57.555Z,10.20
2024-04-24T17:09:47.806Z,10.10
2024-04-24T17:12:40.347Z,10.00
2024-04-24T17:15:30.192Z,10.10
2024-04-24T17:18:20.447Z,10.00
2024-04-24T17:21:10.631Z,10.00
2024-04-24T17:24:01.821Z,10.13
2024-04-24T17:26:52.281Z,10.00
2024-04-24T17:29:45.199Z,10.87
2024-04-24T17:32:35.196Z,10.20
2024-04-24T17:35:26.109Z,10.40
2024-04-24T17:38:16.371Z,11.17
2024-04-24T17:41:06.931Z,10.40
2024-04-24T17:43:57.033Z,10.20
2024-04-24T17:46:49.930Z,10.20
2024-04-24T17:49:40.109Z,10.00
2024-04-24T17:52:30.315Z,10.27
2024-04-24T17:55:20.501Z,9.87
2024-04-24T17:58:10.687Z,10.20
2024-04-24T18:01:00.737Z,10.23
2024-04-24T18:03:53.530Z,9.90
2024-04-24T18:06:43.927Z,10.50
2024-04-24T18:09:33.950Z,10.70
2024-04-24T18:12:23.881Z,10.37
2024-04-24T18:15:14.400Z,11.13
2024-04-24T18:18:04.365Z,10.43
2024-04-24T18:20:57.033Z,10.33
2024-04-24T18:23:47.034Z,10.20
2024-04-24T18:26:37.068Z,10.10
2024-04-24T18:29:27.401Z,10.30
2024-04-24T18:32:17.492Z,10.20
2024-04-24T18:35:08.444Z,10.43
2024-04-24T18:38:01.308Z,9.80
2024-04-24T18:40:51.010Z,10.10
2024-04-24T18:43:42.984Z,10.70
2024-04-24T18:46:33.001Z,10.50
2024-04-24T18:49:23.180Z,10.40
2024-04-24T18:52:13.363Z,10.30
2024-04-24T18:55:06.087Z,10.03
2024-04-24T18:57:56.639Z,10.00
2024-04-24T19:00:47.177Z,10.13
2024-04-24T19:03:37.414Z,10.03
2024-04-24T19:06:27.540Z,10.10
2024-04-24T19:09:18.267Z,9.87
2024-04-24T19:12:11.636Z,9.80
2024-04-24T19:15:01.429Z,9.50
2024-04-24T19:17:51.275Z,10.37
2024-04-24T19:20:42.177Z,10.00
2024-04-24T19:23:32.062Z,10.00
2024-04-24T19:26:23.226Z,10.13
2024-04-24T19:29:15.672Z,10.07
2024-04-24T19:32:06.069Z,9.80
2024-04-24T19:34:58.228Z,10.10
2024-04-24T19:37:48.385Z,10.40
2024-04-24T19:40:38.291Z,10.00
2024-04-24T19:43:28.596Z,10.17
2024-04-24T19:46:21.385Z,10.10
2024-04-24T19:49:11.770Z,9.87
2024-04-24T19:52:01.843Z,10.20
2024-04-24T19:54:51.710Z,10.20
2024-04-24T19:57:41.508Z,9.80
2024-04-24T20:00:31.786Z,9.87
2024-04-24T20:03:24.250Z,10.33
2024-04-24T20:06:15.687Z,10.60
2024-04-24T20:09:06.461Z,10.30
2024-04-24T20:11:56.751Z,10.07
2024-04-24T20:14:46.983Z,15.67
2024-04-24T20:17:37.724Z,12.63
2024-04-24T20:20:30.587Z,11.90
2024-04-24T20:23:20.388Z,11.27
2024-04-24T20:26:21.310Z,10.90
2024-04-24T20:29:11.252Z,10.50
2024-04-24T20:32:01.530Z,10.33
2024-04-24T20:34:51.722Z,10.20
2024-04-24T20:37:47.457Z,10.03
2024-04-24T20:40:37.221Z,10.00
2024-04-24T20:43:27.383Z,9.90
2024-04-24T20:46:17.826Z,9.70
2024-04-24T20:49:07.886Z,9.90
2024-04-24T20:51:58.125Z,9.87
2024-04-24T20:54:51.426Z,9.83
2024-04-24T20:57:41.498Z,9.70
2024-04-24T21:00:31.457Z,10.13
2024-04-24T21:03:25.932Z,9.90
2024-04-24T21:06:17.267Z,10.03
2024-04-24T21:09:08.268Z,9.67
2024-04-24T21:12:01.353Z,10.00
2024-04-24T21:14:53.008Z,9.90
2024-04-24T21:17:44.560Z,9.80
2024-04-24T21:20:34.664Z,9.97
2024-04-24T21:23:24.513Z,9.90
2024-04-24T21:26:16.736Z,10.10
2024-04-24T21:29:10.327Z,10.27
2024-04-24T21:32:00.357Z,10.03
2024-04-24T21:34:50.182Z,10.30
2024-04-24T21:37:40.343Z,10.40
2024-04-24T21:40:30.806Z,10.10
2024-04-24T21:43:21.456Z,10.10
2024-04-24T21:46:15.490Z,9.80
2024-04-24T21:49:05.351Z,10.23
2024-04-24T21:51:55.566Z,10.30
2024-04-24T21:54:45.830Z,10.20
2024-04-24T21:57:35.986Z,10.00
2024-04-24T22:00:26.131Z,10.00
2024-04-24T22:03:18.559Z,9.90
2024-04-24T22:06:09.118Z,10.33
2024-04-24T22:08:59.112Z,9.97
2024-04-24T22:11:49.910Z,10.23
2024-04-24T22:14:40.099Z,10.20
2024-04-24T22:17:30.142Z,10.57
2024-04-24T22:20:23.267Z,10.37
2024-04-24T22:23:14.707Z,10.20
2024-04-24T22:26:04.771Z,10.27
2024-04-24T22:28:54.761Z,10.20
2024-04-24T22:31:44.755Z,10.60
2024-04-24T22:34:35.720Z,10.10
2024-04-24T22:37:31.017Z,10.50
2024-04-24T22:40:21.120Z,10.43
2024-04-24T22:43:11.028Z,10.50
2024-04-24T22:46:01.021Z,10.40
2024-04-24T22:48:51.178Z,10.00
2024-04-24T22:51:40.846Z,9.80
2024-04-24T22:54:33.617Z,10.20
2024-04-24T22:57:23.603Z,10.10
2024-04-24T23:00:20.546Z,10.20
2024-04-24T23:03:10.766Z,10.10
2024-04-24T23:06:00.695Z,10.00
2024-04-24T23:08:50.474Z,9.90
2024-04-24T23:11:43.252Z,10.50
2024-04-24T23:14:33.724Z,10.13
2024-04-24T23:17:24.152Z,9.80
2024-04-24T23:20:14.552Z,10.03
2024-04-24T23:23:04.712Z,10.10
2024-04-24T23:25:54.600Z,9.87
2024-04-24T23:28:47.085Z,10.00
2024-04-24T23:31:37.197Z,9.70
2024-04-24T23:34:27.308Z,9.77
2024-04-24T23:37:17.055Z,9.60
2024-04-24T23:40:07.043Z,9.70
2024-04-24T23:42:56.877Z,9.73
2024-04-24T23:45:49.590Z,9.33
2024-04-24T23:48:39.633Z,9.70
2024-04-24T23:51:29.516Z,9.80
2024-04-24T23:54:19.556Z,9.70
2024-04-24T23:57:09.804Z,9.93
2024-04-24T23:59:59.842Z,9.60
